Time;durP1;ratioP1;P1;durP2;ratioP2;P2;SDS_P1;SDS_P2;PMS_P1;PMS_P2;Temp;Humidity;BMP_temperature;BMP_pressure;BME280_temperature;BME280_humidity;BME280_pressure;Samples;Min_cycle;Max_cycle;Signal;HPM_P1;HPM_P2
2023/08/05 00:00:58;;;;;;;0.10;0.10;;;;;;;18.25;65.77;101775.84;5041552;28;20033;-84
2023/08/05 00:03:24;;;;;;;0.10;0.10;;;;;;;18.27;65.94;101774.84;5035882;28;20032;-82
2023/08/05 00:05:50;;;;;;;0.10;0.10;;;;;;;18.31;65.72;101774.75;5033049;28;20061;-82
2023/08/05 00:08:16;;;;;;;0.10;0.10;;;;;;;18.34;65.94;101775.47;5041005;28;20033;-83
2023/08/05 00:10:44;;;;;;;0.10;0.10;;;;;;;18.38;65.88;101777.13;5041263;28;20037;-81
2023/08/05 00:13:10;;;;;;;9.63;0.75;;;;;;;18.42;65.86;101777.91;5038937;28;20033;-82
2023/08/05 00:15:36;;;;;;;0.10;0.10;;;;;;;18.45;65.67;101771.53;5032310;28;20092;-84
2023/08/05 00:18:02;;;;;;;0.10;0.10;;;;;;;18.48;65.91;101760.66;5041840;28;20132;-83
2023/08/05 00:20:31;;;;;;;0.10;0.10;;;;;;;18.51;65.97;101768.63;5035482;28;20037;-83
2023/08/05 00:22:57;;;;;;;0.10;0.10;;;;;;;18.53;65.95;101769.41;5039383;28;20021;-83
2023/08/05 00:25:23;;;;;;;0.28;0.28;;;;;;;18.56;66.03;101761.25;5039769;28;20021;-84
2023/08/05 00:27:49;;;;;;;0.00;0.00;;;;;;;18.59;66.07;101755.75;5034573;28;20033;-84
2023/08/05 00:30:15;;;;;;;0.10;0.10;;;;;;;18.61;66.22;101755.72;5034354;28;20038;-84
2023/08/05 00:32:41;;;;;;;0.10;0.10;;;;;;;18.64;65.91;101755.56;5033969;28;20033;-83
2023/08/05 00:35:08;;;;;;;2.17;0.63;;;;;;;18.64;66.04;101753.78;5035284;28;20029;-83
2023/08/05 00:37:36;;;;;;;0.10;0.10;;;;;;;18.64;66.14;101745.75;5034710;28;20034;-81
2023/08/05 00:40:04;;;;;;;0.10;0.10;;;;;;;18.64;66.07;101747.53;5039258;28;20112;-80
2023/08/05 00:42:31;;;;;;;0.20;0.20;;;;;;;18.65;66.05;101746.59;5038844;28;20033;-83
2023/08/05 00:44:57;;;;;;;0.30;0.30;;;;;;;18.64;66.20;101740.38;5039344;28;20037;-82
2023/08/05 00:47:23;;;;;;;0.10;0.10;;;;;;;18.64;65.94;101737.69;5032305;28;20049;-81
2023/08/05 00:49:52;;;;;;;0.20;0.20;;;;;;;18.63;65.98;101730.56;5037080;28;20022;-83
2023/08/05 00:52:20;;;;;;;0.10;0.10;;;;;;;18.64;66.07;101735.00;5037520;28;20052;-82
2023/08/05 00:54:46;;;;;;;0.20;0.20;;;;;;;18.65;66.26;101736.72;5029136;28;20033;-81
2023/08/05 00:57:13;;;;;;;0.10;0.10;;;;;;;18.66;66.19;101730.44;5024837;28;20017;-83
2023/08/05 00:59:40;;;;;;;0.10;0.10;;;;;;;18.69;66.21;101726.75;5019485;28;20035;-83
2023/08/05 01:02:06;;;;;;;0.10;0.10;;;;;;;18.70;66.07;101734.72;5020132;28;20402;-83
2023/08/05 01:04:34;;;;;;;0.10;0.10;;;;;;;18.71;66.23;101725.75;5027255;28;20033;-81
2023/08/05 01:07:00;;;;;;;0.10;0.10;;;;;;;18.71;66.07;101723.06;5016088;28;20083;-83
2023/08/05 01:09:27;;;;;;;0.10;0.10;;;;;;;18.73;66.23;101723.88;5026127;28;20033;-80
2023/08/05 01:11:53;;;;;;;0.20;0.20;;;;;;;18.73;66.25;101717.66;5027547;28;20025;-83
2023/08/05 01:14:19;;;;;;;0.10;0.10;;;;;;;18.73;66.37;101718.50;5023055;28;20025;-83
2023/08/05 01:16:46;;;;;;;0.10;0.10;;;;;;;18.76;66.09;101728.25;5027990;28;20142;-83
2023/08/05 01:19:20;;;;;;;0.00;0.00;;;;;;;18.80;66.31;101729.00;5017709;28;20091;-83
2023/08/05 01:22:02;;;;;;;0.10;0.10;;;;;;;18.82;66.18;101727.13;5025598;28;20021;-84
2023/08/05 01:24:37;;;;;;;0.20;0.20;;;;;;;18.81;66.04;101720.03;5025335;28;20487;-82
2023/08/05 01:27:04;;;;;;;0.10;0.10;;;;;;;18.78;66.25;101718.34;5030682;28;20072;-84
2023/08/05 01:29:30;;;;;;;0.10;0.10;;;;;;;18.75;66.23;101727.38;5048166;28;20040;-83
2023/08/05 01:31:56;;;;;;;0.10;0.10;;;;;;;18.75;65.91;101723.81;5050118;28;20052;-83
2023/08/05 01:34:23;;;;;;;0.10;0.10;;;;;;;18.75;66.05;101721.13;5050934;28;20017;-82
2023/08/05 01:36:49;;;;;;;0.10;0.10;;;;;;;18.74;66.35;101722.06;5042405;28;20029;-81
2023/08/05 01:39:15;;;;;;;0.30;0.30;;;;;;;18.73;65.79;101723.88;5050947;28;20030;-80
2023/08/05 01:41:41;;;;;;;0.10;0.10;;;;;;;18.73;65.61;101715.81;5051455;28;20063;-82
2023/08/05 01:44:08;;;;;;;0.10;0.10;;;;;;;18.72;66.02;101716.75;5043670;28;20044;-83
2023/08/05 01:46:34;;;;;;;0.10;0.10;;;;;;;18.69;66.07;101706.16;5042103;28;20080;-81
2023/08/05 01:49:00;;;;;;;0.20;0.20;;;;;;;18.67;66.29;101713.38;5037627;28;20037;-81
2023/08/05 01:51:26;;;;;;;0.10;0.10;;;;;;;18.63;66.35;101706.41;5035376;28;20061;-82
2023/08/05 01:53:52;;;;;;;0.10;0.10;;;;;;;18.62;66.14;101707.34;5041922;28;20093;-84
2023/08/05 01:56:18;;;;;;;0.10;0.10;;;;;;;18.58;66.50;101703.03;5042548;28;20052;-83
2023/08/05 01:58:44;;;;;;;0.10;0.10;;;;;;;18.57;66.59;101704.81;5035222;28;20063;-84
2023/08/05 02:01:10;;;;;;;0.00;0.00;;;;;;;18.55;66.66;101695.09;5028590;28;20033;-83
2023/08/05 02:03:36;;;;;;;0.47;0.25;;;;;;;18.54;66.37;101694.22;5028494;28;20056;-82
2023/08/05 02:06:02;;;;;;;0.10;0.10;;;;;;;18.55;66.77;101698.63;5024483;28;20024;-83
2023/08/05 02:08:29;;;;;;;0.10;0.10;;;;;;;18.53;67.72;101691.59;5035761;28;21929;-83
2023/08/05 02:10:55;;;;;;;0.20;0.20;;;;;;;18.56;66.79;101694.16;5031300;28;20025;-83
2023/08/05 02:13:21;;;;;;;0.10;0.10;;;;;;;18.59;66.98;101700.28;5022812;28;20045;-83
2023/08/05 02:15:47;;;;;;;0.10;0.10;;;;;;;18.61;66.72;101697.53;5027333;28;20022;-83
2023/08/05 02:18:13;;;;;;;0.10;0.10;;;;;;;18.61;66.89;101700.22;5033196;28;20034;-82
2023/08/05 02:20:39;;;;;;;0.10;0.10;;;;;;;18.64;66.83;101707.25;5020836;28;20034;-83
2023/08/05 02:23:05;;;;;;;0.20;0.20;;;;;;;18.66;67.08;101706.25;5036957;28;20026;-83
2023/08/05 02:25:31;;;;;;;0.30;0.30;;;;;;;18.69;66.70;101705.25;5022874;28;20680;-83
2023/08/05 02:27:57;;;;;;;0.10;0.10;;;;;;;18.72;66.73;101705.16;5030066;28;20056;-83
2023/08/05 02:30:23;;;;;;;0.10;0.10;;;;;;;18.72;66.95;101700.66;5019924;28;20045;-83
2023/08/05 02:32:50;;;;;;;0.10;0.10;;;;;;;18.74;67.07;101688.06;5021044;28;20121;-80
2023/08/05 02:35:16;;;;;;;0.10;0.10;;;;;;;18.74;67.02;101671.94;5018876;28;20022;-80
2023/08/05 02:37:42;;;;;;;0.10;0.10;;;;;;;18.75;66.89;101662.97;5020852;28;20056;-81
2023/08/05 02:40:09;;;;;;;0.10;0.10;;;;;;;18.74;66.87;101655.84;5024569;28;20034;-83
2023/08/05 02:42:35;;;;;;;0.10;0.10;;;;;;;18.72;67.20;101651.47;5023148;28;20157;-84
2023/08/05 02:45:02;;;;;;;0.20;0.20;;;;;;;18.72;66.76;101652.34;5024124;28;20040;-83
2023/08/05 02:47:28;;;;;;;0.10;0.10;;;;;;;18.71;66.79;101653.25;5030512;28;20033;-82
2023/08/05 02:49:54;;;;;;;0.15;0.15;;;;;;;18.71;66.98;101650.56;5032159;28;20026;-83
2023/08/05 02:52:20;;;;;;;0.10;0.10;;;;;;;18.71;66.96;101647.91;5022579;28;20442;-83
2023/08/05 02:54:46;;;;;;;0.52;0.52;;;;;;;18.71;67.13;101650.56;5019905;28;20053;-81
2023/08/05 02:57:13;;;;;;;0.10;0.10;;;;;;;18.70;67.32;101637.22;5026260;28;20029;-82
2023/08/05 02:59:39;;;;;;;0.20;0.20;;;;;;;18.69;66.97;101636.38;5020758;28;20073;-84
2023/08/05 03:02:05;;;;;;;0.10;0.10;;;;;;;18.68;67.00;101623.88;5016490;28;20026;-83
2023/08/05 03:04:31;;;;;;;0.30;0.30;;;;;;;18.63;67.04;101620.53;5032003;28;20029;-82
2023/08/05 03:06:57;;;;;;;0.10;0.10;;;;;;;18.60;67.04;101626.00;5013195;28;20060;-81
2023/08/05 03:09:23;;;;;;;0.10;0.10;;;;;;;18.57;67.35;101610.91;5010205;28;20060;-81
2023/08/05 03:11:49;;;;;;;0.10;0.10;;;;;;;18.54;67.40;101620.88;5023778;28;20021;-82
2023/08/05 03:14:15;;;;;;;0.10;0.10;;;;;;;18.49;67.82;101618.41;5039761;28;20064;-79
2023/08/05 03:16:42;;;;;;;0.13;0.13;;;;;;;18.46;67.43;101617.66;5041908;28;20056;-79
2023/08/05 03:19:08;;;;;;;0.10;0.10;;;;;;;18.40;67.72;101614.25;5047682;28;20069;-83
2023/08/05 03:21:34;;;;;;;0.20;0.20;;;;;;;18.36;67.90;101612.66;5028974;28;20406;-81
2023/08/05 03:24:00;;;;;;;0.10;0.10;;;;;;;18.34;67.87;101611.81;5013432;28;20041;-81
2023/08/05 03:26:26;;;;;;;0.10;0.10;;;;;;;18.31;67.94;101617.34;5011830;28;20454;-81
2023/08/05 03:28:52;;;;;;;0.10;0.10;;;;;;;18.30;67.94;101612.03;5023876;28;20044;-82
2023/08/05 03:31:18;;;;;;;0.10;0.10;;;;;;;18.30;67.86;101607.53;5016253;28;20037;-81
2023/08/05 03:33:45;;;;;;;0.10;0.10;;;;;;;18.31;67.97;101603.91;5015540;28;20121;-81
2023/08/05 03:36:11;;;;;;;0.10;0.10;;;;;;;18.31;67.81;101608.44;5022582;28;20026;-79
2023/08/05 03:38:37;;;;;;;0.10;0.10;;;;;;;18.28;68.06;101609.41;5028795;28;20037;-80
2023/08/05 03:41:04;;;;;;;0.10;0.10;;;;;;;18.28;67.91;101614.78;5031338;28;20406;-80
2023/08/05 03:43:30;;;;;;;0.10;0.10;;;;;;;18.26;68.16;101606.78;5027076;28;20021;-82
2023/08/05 03:45:56;;;;;;;0.10;0.10;;;;;;;18.25;68.15;101625.63;5023811;28;20060;-81
2023/08/05 03:48:23;;;;;;;0.10;0.10;;;;;;;18.24;68.24;101615.81;5032336;28;20033;-83
2023/08/05 03:50:49;;;;;;;0.10;0.10;;;;;;;18.22;68.00;101610.53;5021819;28;20036;-83
2023/08/05 03:53:15;;;;;;;0.10;0.10;;;;;;;18.20;68.18;101596.28;5023511;28;20040;-82
2023/08/05 03:55:41;;;;;;;0.10;0.10;;;;;;;18.18;68.69;101576.72;5024949;28;20044;-81
2023/08/05 03:58:07;;;;;;;0.15;0.15;;;;;;;18.17;68.51;101569.59;5023736;28;20495;-82
2023/08/05 04:00:35;;;;;;;0.05;0.05;;;;;;;18.15;68.69;101570.59;5017300;28;20049;-81
2023/08/05 04:03:01;;;;;;;0.20;0.20;;;;;;;18.14;68.85;101574.22;5017559;28;20201;-81
2023/08/05 04:05:27;;;;;;;0.20;0.20;;;;;;;18.11;68.79;101565.34;5030781;28;20056;-81
2023/08/05 04:07:53;;;;;;;0.15;0.15;;;;;;;18.10;68.63;101554.69;5025290;28;20045;-80
2023/08/05 04:10:22;;;;;;;0.10;0.10;;;;;;;18.08;68.46;101560.13;5021051;28;20056;-79
2023/08/05 04:12:48;;;;;;;0.05;0.05;;;;;;;18.06;68.53;101553.94;5034062;28;20501;-82
2023/08/05 04:15:14;;;;;;;0.10;0.10;;;;;;;18.06;68.59;101561.13;5021984;28;20075;-81
2023/08/05 04:17:42;;;;;;;0.65;0.65;;;;;;;18.05;68.92;101554.00;5015904;28;20042;-83
2023/08/05 04:20:08;;;;;;;0.10;0.10;;;;;;;18.04;69.14;101558.47;5027507;28;20030;-82
2023/08/05 04:22:36;;;;;;;0.10;0.10;;;;;;;18.04;69.22;101550.44;5035176;28;20037;-81
2023/08/05 04:25:02;;;;;;;0.05;0.05;;;;;;;18.04;68.79;101554.94;5036249;28;20105;-80
2023/08/05 04:27:28;;;;;;;0.10;0.10;;;;;;;18.03;69.04;101542.47;5034506;28;20162;-81
2023/08/05 04:29:54;;;;;;;0.10;0.10;;;;;;;18.01;68.76;101539.84;5034848;28;20029;-81
2023/08/05 04:32:20;;;;;;;0.00;0.00;;;;;;;18.00;69.07;101538.09;5035647;28;20590;-84
2023/08/05 04:34:47;;;;;;;0.10;0.10;;;;;;;17.99;68.96;101543.53;5025144;28;20033;-83
2023/08/05 04:39:51;;;;;;;0.20;0.20;;;;;;;17.96;69.06;101533.81;5097347;27;1190780;-83
2023/08/05 04:42:18;;;;;;;0.10;0.10;;;;;;;17.95;69.31;101535.59;5130276;28;20080;-83
2023/08/05 04:44:45;;;;;;;0.10;0.10;;;;;;;17.95;69.06;101537.41;5125080;27;20088;-80
2023/08/05 04:47:12;;;;;;;0.10;0.10;;;;;;;17.93;69.17;101540.13;5118287;28;20024;-81
2023/08/05 04:49:41;;;;;;;0.10;0.10;;;;;;;17.96;69.09;101539.16;5126648;28;20043;-80
2023/08/05 04:52:08;;;;;;;0.00;0.00;;;;;;;17.97;69.24;101540.91;5115235;28;20037;-82
2023/08/05 04:54:49;;;;;;;0.00;0.00;;;;;;;18.05;69.05;101537.94;5119468;27;20023;-81
2023/08/05 04:57:16;;;;;;;0.10;0.10;;;;;;;17.99;69.33;101524.75;5122978;28;20102;-83
2023/08/05 04:59:43;;;;;;;0.10;0.10;;;;;;;17.96;69.46;101528.44;5128007;27;20038;-82
2023/08/05 05:02:09;;;;;;;0.10;0.10;;;;;;;17.94;69.62;101525.84;5133838;28;20045;-83
2023/08/05 05:04:35;;;;;;;0.10;0.10;;;;;;;17.94;69.46;101525.84;5127670;28;20197;-83
2023/08/05 05:07:01;;;;;;;0.10;0.10;;;;;;;17.93;69.37;101516.00;5127861;28;20042;-84
2023/08/05 05:09:28;;;;;;;0.10;0.10;;;;;;;17.92;69.77;101514.25;5122151;28;20503;-81
2023/08/05 05:11:55;;;;;;;0.38;0.20;;;;;;;17.94;69.71;101514.22;5123166;28;20734;-84
2023/08/05 05:14:21;;;;;;;0.10;0.10;;;;;;;17.95;69.72;101521.31;5131332;27;20100;-82
2023/08/05 05:16:47;;;;;;;0.40;0.40;;;;;;;17.97;69.56;101513.22;5124778;28;20488;-83
2023/08/05 05:19:13;;;;;;;0.05;0.05;;;;;;;17.99;69.63;101512.22;5128789;28;20027;-84
2023/08/05 05:21:39;;;;;;;0.00;0.00;;;;;;;18.01;69.62;101496.94;5131960;28;20094;-82
2023/08/05 05:24:05;;;;;;;0.13;0.13;;;;;;;18.02;69.48;101493.34;5131184;28;20031;-83
2023/08/05 05:26:31;;;;;;;0.10;0.10;;;;;;;18.06;69.58;101494.09;5131251;27;20019;-83
2023/08/05 05:28:57;;;;;;;0.25;0.25;;;;;;;18.09;69.69;101493.94;5131534;28;20023;-84
2023/08/05 05:31:23;;;;;;;0.10;0.10;;;;;;;18.11;69.72;101494.78;5132387;27;20035;-84
2023/08/05 05:33:51;;;;;;;0.10;0.10;;;;;;;18.13;69.90;101489.34;5132142;28;20050;-83
2023/08/05 05:36:17;;;;;;;0.10;0.10;;;;;;;18.17;69.56;101490.94;5134214;27;20106;-82
2023/08/05 05:38:43;;;;;;;0.65;0.65;;;;;;;18.20;69.72;101494.38;5152494;28;20038;-80
2023/08/05 05:41:09;;;;;;;0.10;0.10;;;;;;;18.21;69.66;101489.91;5142449;28;20032;-81
2023/08/05 05:43:38;;;;;;;0.10;0.10;;;;;;;18.23;70.01;101488.00;5133425;28;20031;-81
2023/08/05 05:46:04;;;;;;;0.40;0.40;;;;;;;18.26;69.90;101477.16;5125286;27;20395;-84
2023/08/05 05:48:30;;;;;;;0.10;0.10;;;;;;;18.29;69.95;101470.78;5133833;27;20465;-84
2023/08/05 05:50:56;;;;;;;0.10;0.10;;;;;;;18.32;69.75;101476.91;5123088;28;20045;-84
2023/08/05 05:53:22;;;;;;;0.10;0.10;;;;;;;18.36;69.86;101474.97;5120839;28;20526;-85
2023/08/05 05:55:53;;;;;;;0.10;0.10;;;;;;;18.40;69.96;101474.75;5118794;28;20043;-85
2023/08/05 05:58:19;;;;;;;0.10;0.10;;;;;;;18.38;69.78;101465.91;5121906;28;20016;-84
2023/08/05 06:00:45;;;;;;;0.55;0.55;;;;;;;18.44;69.79;101470.13;5122321;27;20527;-85
2023/08/05 06:03:12;;;;;;;0.10;0.10;;;;;;;18.49;69.41;101461.88;5119377;28;20041;-84
2023/08/05 06:05:38;;;;;;;0.20;0.20;;;;;;;18.52;69.48;101461.78;5122074;28;20512;-85
2023/08/05 06:08:04;;;;;;;0.05;0.05;;;;;;;18.56;69.59;101458.00;5118831;28;20046;-84
2023/08/05 06:10:30;;;;;;;0.10;0.10;;;;;;;18.63;69.42;101466.66;5118375;28;20038;-84
2023/08/05 06:12:57;;;;;;;0.38;0.38;;;;;;;18.66;69.57;101464.69;5120674;28;20118;-83
2023/08/05 06:15:23;;;;;;;0.10;0.10;;;;;;;18.66;69.53;101470.06;5122966;28;20035;-84
2023/08/05 06:17:49;;;;;;;0.20;0.20;;;;;;;18.69;69.65;101466.38;5118747;28;20172;-84
2023/08/05 06:20:15;;;;;;;0.10;0.10;;;;;;;18.70;69.50;101470.81;5123523;28;20036;-83
2023/08/05 06:22:42;;;;;;;0.22;0.22;;;;;;;18.75;69.17;101472.38;5120867;28;20066;-80
2023/08/05 06:25:08;;;;;;;0.10;0.10;;;;;;;18.76;69.07;101457.13;5112961;27;20054;-81
2023/08/05 06:27:34;;;;;;;0.40;0.40;;;;;;;18.78;68.90;101467.78;5117680;28;20053;-83
2023/08/05 06:30:00;;;;;;;0.10;0.10;;;;;;;18.68;69.30;101468.19;5112618;28;20058;-83
2023/08/05 06:32:26;;;;;;;0.25;0.25;;;;;;;18.69;68.91;101469.94;5120850;28;20024;-84
2023/08/05 06:34:52;;;;;;;0.45;0.45;;;;;;;18.70;68.99;101462.75;5120636;28;20053;-84
2023/08/05 06:37:18;;;;;;;0.10;0.10;;;;;;;18.68;69.52;101456.56;5110266;28;20024;-85
2023/08/05 06:39:45;;;;;;;0.22;0.22;;;;;;;18.64;69.56;101461.22;5120094;28;20028;-84
2023/08/05 06:42:11;;;;;;;0.10;0.10;;;;;;;18.64;70.10;101453.19;5120086;28;20028;-84
2023/08/05 06:44:37;;;;;;;0.10;0.10;;;;;;;18.80;69.60;101449.81;5120596;28;20102;-83
2023/08/05 06:47:04;;;;;;;0.10;0.10;;;;;;;18.84;69.96;101446.91;5111383;28;20046;-83
2023/08/05 06:49:31;;;;;;;0.30;0.30;;;;;;;18.91;69.57;101436.78;5126913;28;20051;-84
2023/08/05 06:51:58;;;;;;;0.65;0.65;;;;;;;18.98;69.38;101442.75;5123128;28;20027;-83
2023/08/05 06:54:24;;;;;;;0.20;0.20;;;;;;;19.07;68.81;101437.81;5129132;28;20036;-83
2023/08/05 06:56:51;;;;;;;0.10;0.10;;;;;;;19.12;68.35;101431.38;5127006;28;20107;-79
2023/08/05 06:59:17;;;;;;;1.75;1.45;;;;;;;19.21;68.19;101433.63;5125814;28;20004;-82
2023/08/05 07:01:43;;;;;;;0.10;0.10;;;;;;;19.22;67.58;101435.38;5120168;28;20048;-85
2023/08/05 07:04:09;;;;;;;2.53;2.05;;;;;;;19.30;67.73;101430.53;5110755;28;20050;-85
2023/08/05 07:06:35;;;;;;;0.10;0.10;;;;;;;19.42;67.80;101430.88;5109626;28;20429;-84
2023/08/05 07:09:03;;;;;;;0.40;0.40;;;;;;;19.54;67.57;101423.09;5110065;28;20026;-84
2023/08/05 07:11:30;;;;;;;0.10;0.10;;;;;;;19.68;67.07;101424.25;5106379;28;20028;-86
2023/08/05 07:13:56;;;;;;;0.28;0.28;;;;;;;19.80;65.95;101414.69;5104763;28;20084;-84
2023/08/05 07:16:22;;;;;;;0.30;0.30;;;;;;;19.89;65.88;101414.28;5100261;28;20059;-84
2023/08/05 07:18:49;;;;;;;0.32;0.32;;;;;;;20.01;65.48;101419.03;5102951;28;20028;-85
2023/08/05 07:21:18;;;;;;;0.75;0.75;;;;;;;20.08;64.34;101411.50;5101317;28;20053;-84
2023/08/05 07:23:44;;;;;;;0.30;0.30;;;;;;;20.11;63.42;101410.47;5113762;28;20519;-84
2023/08/05 07:26:10;;;;;;;0.15;0.15;;;;;;;20.15;63.54;101399.50;5101632;28;20060;-84
2023/08/05 07:28:36;;;;;;;0.17;0.17;;;;;;;20.19;63.18;101390.31;5105437;28;20028;-85
2023/08/05 07:31:05;;;;;;;0.75;0.75;;;;;;;20.25;62.72;101393.63;5113448;28;20028;-84
2023/08/05 07:33:32;;;;;;;0.57;0.50;;;;;;;20.30;62.16;101387.06;5093896;28;20050;-85
2023/08/05 07:36:06;;;;;;;0.10;0.10;;;;;;;20.37;62.02;101395.66;5105456;28;20026;-84
2023/08/05 07:38:35;;;;;;;0.20;0.20;;;;;;;20.41;61.22;101393.69;5105117;28;20388;-84
2023/08/05 07:41:01;;;;;;;0.17;0.17;;;;;;;20.52;61.51;101386.81;5093227;28;20043;-84
2023/08/05 07:43:29;;;;;;;0.10;0.10;;;;;;;20.57;61.02;101375.75;5101188;28;20507;-85
2023/08/05 07:45:59;;;;;;;0.00;0.00;;;;;;;20.64;61.21;101369.09;5105507;28;20046;-84
2023/08/05 07:48:26;;;;;;;0.10;0.10;;;;;;;20.72;61.13;101365.16;5104735;28;20031;-84
2023/08/05 07:50:52;;;;;;;0.10;0.10;;;;;;;20.77;61.61;101363.97;5098017;28;20036;-83
2023/08/05 07:53:20;;;;;;;0.10;0.10;;;;;;;20.83;61.61;101362.75;5107497;28;20023;-84
2023/08/05 07:55:47;;;;;;;0.50;0.50;;;;;;;20.88;61.35;101365.19;5110353;28;20388;-84
2023/08/05 07:58:13;;;;;;;0.45;0.45;;;;;;;20.90;60.65;101374.03;5106282;28;20035;-80
2023/08/05 08:00:39;;;;;;;0.10;0.10;;;;;;;20.91;60.39;101365.91;5127452;28;20688;-83
2023/08/05 08:03:06;;;;;;;0.10;0.10;;;;;;;20.96;59.89;101363.81;5108536;28;20552;-83
2023/08/05 08:05:32;;;;;;;0.35;0.35;;;;;;;20.91;58.86;101357.81;5096215;28;20024;-84
2023/08/05 08:08:00;;;;;;;0.38;0.38;;;;;;;20.92;58.89;101351.47;5116605;28;20016;-85
2023/08/05 08:10:26;;;;;;;0.13;0.13;;;;;;;20.93;58.88;101347.81;5106937;28;20024;-83
2023/08/05 08:12:52;;;;;;;0.10;0.10;;;;;;;21.00;59.47;101348.34;5100924;28;20020;-83
2023/08/05 08:15:19;;;;;;;0.30;0.30;;;;;;;21.01;58.73;101336.63;5106024;28;20027;-83
2023/08/05 08:17:45;;;;;;;0.05;0.05;;;;;;;20.96;57.75;101334.19;5113489;28;20056;-84
2023/08/05 08:20:11;;;;;;;0.10;0.10;;;;;;;21.09;58.40;101330.81;5116165;28;20031;-84
2023/08/05 08:22:37;;;;;;;0.10;0.10;;;;;;;21.15;58.74;101333.16;5114595;28;20091;-84
2023/08/05 08:25:04;;;;;;;0.10;0.10;;;;;;;21.22;58.16;101326.47;5102452;28;20031;-83
2023/08/05 08:27:30;;;;;;;0.70;0.68;;;;;;;21.23;57.99;101320.09;5109792;28;20049;-82
2023/08/05 08:29:56;;;;;;;0.10;0.10;;;;;;;21.23;57.86;101316.53;5106329;28;20023;-84
2023/08/05 08:32:23;;;;;;;0.13;0.13;;;;;;;21.24;58.14;101313.75;5108986;28;20428;-83
2023/08/05 08:34:49;;;;;;;0.10;0.10;;;;;;;21.39;58.35;101319.22;5110470;28;20038;-84
2023/08/05 08:37:15;;;;;;;0.10;0.10;;;;;;;21.47;57.92;101306.16;5109442;28;20106;-85
2023/08/05 08:39:41;;;;;;;0.20;0.20;;;;;;;21.56;56.96;101297.56;5114001;28;20073;-84
2023/08/05 08:42:07;;;;;;;0.10;0.10;;;;;;;21.73;56.89;101301.06;5109798;28;20028;-84
2023/08/05 08:44:35;;;;;;;0.80;0.80;;;;;;;21.83;56.98;101299.56;5101463;28;20119;-84
2023/08/05 08:47:01;;;;;;;0.20;0.20;;;;;;;21.94;56.63;101296.22;5107536;28;20035;-85
2023/08/05 08:49:30;;;;;;;0.20;0.20;;;;;;;21.98;56.23;101298.63;5096535;28;20095;-84
2023/08/05 08:51:56;;;;;;;0.47;0.47;;;;;;;21.99;55.84;101296.78;5104504;28;20545;-84
2023/08/05 08:54:26;;;;;;;0.10;0.10;;;;;;;22.04;55.77;101296.53;5112504;28;20031;-83
2023/08/05 08:56:52;;;;;;;0.10;0.10;;;;;;;22.00;55.67;101292.28;5113246;28;20054;-83
2023/08/05 08:59:19;;;;;;;0.10;0.10;;;;;;;22.02;55.79;101280.44;5111467;28;20030;-85
2023/08/05 09:01:47;;;;;;;0.10;0.10;;;;;;;22.03;55.41;101284.00;5113586;28;20047;-85
2023/08/05 09:04:15;;;;;;;0.10;0.10;;;;;;;22.07;55.41;101275.63;5111915;28;20024;-84
2023/08/05 09:06:46;;;;;;;1.80;1.70;;;;;;;22.17;55.68;101270.53;5113678;28;20598;-84
2023/08/05 09:09:12;;;;;;;0.00;0.00;;;;;;;22.23;55.44;101259.34;5114915;28;20477;-84
2023/08/05 09:11:38;;;;;;;0.25;0.25;;;;;;;22.33;55.77;101253.34;5114001;28;20027;-84
2023/08/05 09:14:07;;;;;;;0.20;0.20;;;;;;;22.38;55.44;101253.97;5108686;28;20024;-85
2023/08/05 09:16:33;;;;;;;0.10;0.10;;;;;;;22.43;55.33;101246.44;5102208;28;20058;-84
2023/08/05 09:19:00;;;;;;;0.10;0.10;;;;;;;22.46;55.66;101244.41;5109363;28;20020;-82
2023/08/05 09:21:28;;;;;;;0.10;0.10;;;;;;;22.41;55.56;101243.84;5110025;28;20039;-82
2023/08/05 09:23:58;;;;;;;0.10;0.10;;;;;;;22.38;54.73;101240.47;5112108;28;20023;-85
2023/08/05 09:26:32;;;;;;;0.10;0.10;;;;;;;22.30;54.40;101230.97;5113894;28;20028;-83
2023/08/05 09:28:59;;;;;;;0.10;0.10;;;;;;;22.21;54.71;101238.81;5110549;28;20365;-86
2023/08/05 09:31:26;;;;;;;1.60;1.42;;;;;;;22.06;54.23;101237.94;5110905;28;20032;-86
2023/08/05 09:33:52;;;;;;;2.03;1.33;;;;;;;22.06;54.43;101229.84;5117347;28;20036;-84
2023/08/05 09:36:22;;;;;;;0.75;0.55;;;;;;;22.06;54.27;101224.47;5110045;28;20035;-84
2023/08/05 09:39:05;;;;;;;0.10;0.10;;;;;;;21.95;53.79;101238.59;5117104;28;20039;-84
2023/08/05 09:41:34;;;;;;;0.20;0.20;;;;;;;21.74;54.60;101233.56;5117615;28;20028;-84
2023/08/05 09:44:00;;;;;;;0.20;0.20;;;;;;;21.60;54.65;101236.25;5108469;28;20393;-82
2023/08/05 09:46:40;;;;;;;0.10;0.10;;;;;;;21.51;54.76;101234.94;5108365;28;20023;-84
2023/08/05 09:49:08;;;;;;;0.13;0.13;;;;;;;21.51;54.95;101232.22;5103623;28;20024;-84
2023/08/05 09:51:35;;;;;;;0.10;0.10;;;;;;;21.56;54.55;101222.06;5116303;28;20026;-84
2023/08/05 09:54:05;;;;;;;0.10;0.10;;;;;;;21.73;54.52;101206.69;5116786;28;20019;-84
2023/08/05 09:56:32;;;;;;;0.10;0.10;;;;;;;21.92;55.02;101209.09;5118867;27;20023;-84
2023/08/05 09:58:58;;;;;;;0.10;0.10;;;;;;;22.00;53.49;101212.19;5117223;28;20019;-85
2023/08/05 10:01:24;;;;;;;0.35;0.35;;;;;;;22.14;52.61;101200.53;5113100;28;20030;-84
2023/08/05 10:03:53;;;;;;;1.65;0.75;;;;;;;22.28;52.69;101194.25;5112495;28;20032;-84
2023/08/05 10:06:20;;;;;;;0.10;0.10;;;;;;;22.39;52.14;101193.59;5111108;28;20543;-84
2023/08/05 10:08:48;;;;;;;0.35;0.35;;;;;;;22.44;52.29;101195.06;5116787;28;20024;-84
2023/08/05 10:11:15;;;;;;;0.10;0.10;;;;;;;22.55;51.82;101188.09;5111276;28;20020;-83
2023/08/05 10:13:44;;;;;;;0.10;0.10;;;;;;;22.51;51.95;101186.56;5113295;28;20103;-82
2023/08/05 10:16:12;;;;;;;0.03;0.03;;;;;;;22.46;52.07;101184.16;5116464;28;20374;-84
2023/08/05 10:18:38;;;;;;;0.30;0.30;;;;;;;22.33;52.30;101184.06;5124774;27;20028;-82
2023/08/05 10:21:06;;;;;;;0.10;0.10;;;;;;;22.01;52.06;101188.78;5121915;28;20023;-85
2023/08/05 10:23:34;;;;;;;0.10;0.10;;;;;;;21.88;52.14;101186.00;5115710;28;20069;-84
2023/08/05 10:26:02;;;;;;;0.20;0.20;;;;;;;21.59;52.94;101188.66;5109216;28;20023;-85
2023/08/05 10:31:28;;;;;;;0.10;0.10;;;;;;;21.16;55.42;101181.31;5070809;28;20466;-86
2023/08/05 10:34:10;;;;;;;0.52;0.52;;;;;;;20.83;57.82;101180.47;5071372;28;20032;-85
2023/08/05 10:36:47;;;;;;;0.30;0.30;;;;;;;20.66;58.92;101181.44;5076257;28;20031;-85
2023/08/05 10:45:08;;;;;;;0.20;0.20;;;;;;;20.13;60.37;101182.63;5134960;27;20373;-82
2023/08/05 10:47:34;;;;;;;0.30;0.30;;;;;;;20.11;59.44;101181.81;5119809;28;20044;-81
2023/08/05 10:50:01;;;;;;;0.20;0.20;;;;;;;20.07;59.28;101172.19;5128387;28;20031;-82
2023/08/05 10:52:28;;;;;;;0.28;0.28;;;;;;;20.11;59.07;101171.94;5124097;28;20023;-83
2023/08/05 10:54:54;;;;;;;0.10;0.10;;;;;;;20.16;58.60;101174.38;5117955;28;20028;-83
2023/08/05 11:00:20;;;;;;;0.03;0.03;;;;;;;20.28;59.18;101164.75;5115141;27;20478;-83
2023/08/05 11:02:47;;;;;;;0.10;0.10;;;;;;;20.30;59.21;101165.53;5097124;28;20032;-83
2023/08/05 11:05:13;;;;;;;0.05;0.05;;;;;;;20.34;60.38;101167.97;5094911;28;20020;-83
2023/08/05 11:07:41;;;;;;;0.10;0.10;;;;;;;20.32;59.92;101159.09;5088538;28;20103;-83
2023/08/05 11:10:08;;;;;;;0.10;0.10;;;;;;;20.26;59.58;101153.22;5093241;28;20028;-83
2023/08/05 11:12:37;;;;;;;0.10;0.10;;;;;;;20.08;59.00;101157.81;5089888;28;20044;-83
2023/08/05 11:15:03;;;;;;;0.10;0.10;;;;;;;20.01;58.94;101155.44;5093081;28;20035;-83
2023/08/05 11:17:29;;;;;;;0.10;0.10;;;;;;;19.86;58.30;101161.66;5090635;28;20033;-83
2023/08/05 11:19:58;;;;;;;0.10;0.10;;;;;;;19.68;57.98;101168.84;5093983;28;20027;-83
2023/08/05 11:22:27;;;;;;;0.08;0.08;;;;;;;19.53;58.40;101162.47;5092836;28;20094;-83
2023/08/05 11:25:01;;;;;;;0.10;0.10;;;;;;;19.46;58.65;101156.53;5093305;28;20082;-83
2023/08/05 11:27:33;;;;;;;1.10;0.65;;;;;;;19.31;59.49;101150.16;5093508;28;20067;-83
2023/08/05 11:30:09;;;;;;;0.20;0.20;;;;;;;19.29;60.00;101149.38;5094173;28;20062;-82
2023/08/05 11:32:50;;;;;;;0.00;0.00;;;;;;;19.31;60.60;101142.09;5092850;28;20032;-82
2023/08/05 11:35:16;;;;;;;0.10;0.10;;;;;;;19.23;60.64;101130.88;5095380;28;20028;-83
2023/08/05 11:37:42;;;;;;;0.10;0.10;;;;;;;19.20;60.11;101134.59;5095622;28;20024;-83